Time;durP1;ratioP1;P1;durP2;ratioP2;P2;SDS_P1;SDS_P2;PMS_P1;PMS_P2;Temp;Humidity;BMP_temperature;BMP_pressure;BME280_temperature;BME280_humidity;BME280_pressure;Samples;Min_cycle;Max_cycle;Signal;HPM_P1;HPM_P2
2023/03/25 00:01:16;;;;;;;3.08;0.85;;;;;;;;;;5087320;28;20403;-74
2023/03/25 00:03:49;;;;;;;1.40;0.50;;;;;;;;;;5086454;28;20044;-74
2023/03/25 00:06:20;;;;;;;1.05;0.80;;;;;;;;;;5087010;28;20048;-76
2023/03/25 00:08:50;;;;;;;1.42;0.40;;;;;;;;;;5086759;28;21093;-75
2023/03/25 00:11:22;;;;;;;3.83;0.73;;;;;;;;;;5086167;28;20051;-75
2023/03/25 00:13:52;;;;;;;1.98;0.32;;;;;;;;;;5086238;28;20040;-75
2023/03/25 00:16:23;;;;;;;1.27;0.60;;;;;;;;;;5087243;28;20521;-74
2023/03/25 00:18:54;;;;;;;5.65;0.38;;;;;;;;;;5086858;28;20060;-75
2023/03/25 00:21:25;;;;;;;3.67;0.90;;;;;;;;;;5086191;28;20067;-74
2023/03/25 00:23:55;;;;;;;5.28;0.93;;;;;;;;;;5096157;28;20055;-74
2023/03/25 00:26:28;;;;;;;4.90;0.60;;;;;;;;;;5094790;28;20040;-74
2023/03/25 00:28:59;;;;;;;8.95;0.80;;;;;;;;;;5095443;28;20044;-75
2023/03/25 00:31:29;;;;;;;7.47;0.60;;;;;;;;;;5091631;28;20059;-74
2023/03/25 00:34:00;;;;;;;5.88;0.50;;;;;;;;;;5086442;28;20399;-75
2023/03/25 00:36:30;;;;;;;7.88;0.70;;;;;;;;;;5068061;28;20063;-73
2023/03/25 00:39:01;;;;;;;3.63;0.30;;;;;;;;;;5085598;28;20060;-74
2023/03/25 00:41:34;;;;;;;2.15;0.60;;;;;;;;;;5087085;28;20056;-73
2023/03/25 00:44:05;;;;;;;2.25;0.38;;;;;;;;;;5067743;28;20048;-73
2023/03/25 00:46:37;;;;;;;1.75;0.50;;;;;;;;;;5086575;28;20499;-74
2023/03/25 00:49:07;;;;;;;1.92;0.43;;;;;;;;;;5086512;28;20058;-73
2023/03/25 00:51:38;;;;;;;3.88;0.57;;;;;;;;;;5085900;28;20051;-73
2023/03/25 00:54:22;;;;;;;3.60;0.40;;;;;;;;;;5085727;28;20411;-74
2023/03/25 00:56:53;;;;;;;3.40;0.43;;;;;;;;;;5066652;28;20055;-73
2023/03/25 00:59:26;;;;;;;2.78;0.45;;;;;;;;;;5066921;28;20068;-72
2023/03/25 01:01:59;;;;;;;4.43;0.70;;;;;;;;;;5067312;28;20048;-74
2023/03/25 01:04:30;;;;;;;3.60;0.40;;;;;;;;;;5067651;28;20044;-73
2023/03/25 01:07:02;;;;;;;2.05;0.50;;;;;;;;;;5068654;28;20056;-80
2023/03/25 01:09:32;;;;;;;3.83;0.60;;;;;;;;;;5085948;28;20044;-74
2023/03/25 01:12:02;;;;;;;3.78;0.65;;;;;;;;;;5067545;28;20506;-74
2023/03/25 01:14:33;;;;;;;4.53;0.80;;;;;;;;;;5085707;28;20056;-74
2023/03/25 01:17:03;;;;;;;5.57;0.50;;;;;;;;;;5085131;28;20044;-75
2023/03/25 01:19:34;;;;;;;4.78;0.80;;;;;;;;;;5066289;28;20044;-74
2023/03/25 01:22:05;;;;;;;3.83;1.13;;;;;;;;;;5086629;28;20059;-74
2023/03/25 01:24:37;;;;;;;6.13;0.45;;;;;;;;;;5084756;28;20048;-74
2023/03/25 01:27:07;;;;;;;10.05;1.00;;;;;;;;;;5070054;28;20049;-74
2023/03/25 01:29:37;;;;;;;4.20;0.65;;;;;;;;;;5090215;28;20055;-76
2023/03/25 01:32:07;;;;;;;5.72;0.70;;;;;;;;;;5089632;28;20054;-75
2023/03/25 01:34:38;;;;;;;3.67;0.70;;;;;;;;;;5070986;28;20483;-75
2023/03/25 01:37:09;;;;;;;4.32;0.60;;;;;;;;;;5070739;28;20070;-76
2023/03/25 01:39:40;;;;;;;2.08;0.80;;;;;;;;;;5089696;28;20079;-74
2023/03/25 01:42:11;;;;;;;3.30;0.68;;;;;;;;;;5089292;28;20059;-74
2023/03/25 01:44:46;;;;;;;1.27;0.65;;;;;;;;;;5088401;28;20052;-75
2023/03/25 01:47:17;;;;;;;5.38;1.13;;;;;;;;;;5089417;28;20403;-74
2023/03/25 01:49:48;;;;;;;4.68;0.52;;;;;;;;;;5089401;28;20036;-74
2023/03/25 01:52:26;;;;;;;2.95;0.75;;;;;;;;;;5090015;28;20055;-74
2023/03/25 01:54:59;;;;;;;0.50;0.50;;;;;;;;;;5090043;28;20510;-74
2023/03/25 01:57:31;;;;;;;6.03;0.65;;;;;;;;;;5089648;28;20051;-74
2023/03/25 02:00:07;;;;;;;2.10;0.70;;;;;;;;;;5089218;28;20048;-74
2023/03/25 02:02:41;;;;;;;3.58;0.70;;;;;;;;;;5096085;28;20052;-74
2023/03/25 02:05:24;;;;;;;7.32;0.60;;;;;;;;;;5088825;28;20105;-74
2023/03/25 02:07:56;;;;;;;5.43;0.60;;;;;;;;;;5070240;28;20048;-73
2023/03/25 02:10:26;;;;;;;2.95;0.50;;;;;;;;;;5089165;28;20047;-74
2023/03/25 02:12:57;;;;;;;4.22;0.45;;;;;;;;;;5089056;28;20415;-74
2023/03/25 02:15:32;;;;;;;1.38;0.40;;;;;;;;;;5088758;28;20399;-74
2023/03/25 02:18:43;;;;;;;1.23;0.38;;;;;;;;;;5089073;28;20478;-73
2023/03/25 02:21:32;;;;;;;1.42;0.60;;;;;;;;;;5088986;28;20056;-74
2023/03/25 02:24:15;;;;;;;2.67;0.55;;;;;;;;;;5088303;28;20039;-73
2023/03/25 02:27:12;;;;;;;2.83;0.40;;;;;;;;;;5088834;28;20040;-74
2023/03/25 02:30:01;;;;;;;2.72;0.73;;;;;;;;;;5088813;28;20050;-74
2023/03/25 02:32:43;;;;;;;4.60;0.57;;;;;;;;;;5069798;28;20507;-74
2023/03/25 02:35:56;;;;;;;2.15;0.32;;;;;;;;;;5088412;28;20103;-74
2023/03/25 02:38:36;;;;;;;3.25;0.40;;;;;;;;;;5069564;28;20044;-74
2023/03/25 02:41:21;;;;;;;3.42;0.63;;;;;;;;;;5088614;28;20044;-74
2023/03/25 02:44:11;;;;;;;2.60;0.55;;;;;;;;;;5070003;28;20051;-74
2023/03/25 02:46:50;;;;;;;1.85;0.57;;;;;;;;;;5069997;28;20063;-75
2023/03/25 02:49:30;;;;;;;3.70;0.70;;;;;;;;;;5088030;28;20403;-73
2023/03/25 02:52:01;;;;;;;2.08;0.40;;;;;;;;;;5069620;28;20044;-74
2023/03/25 02:54:35;;;;;;;4.35;0.70;;;;;;;;;;5088302;28;20460;-74
2023/03/25 02:57:08;;;;;;;1.73;0.40;;;;;;;;;;5069484;28;20051;-75
2023/03/25 02:59:40;;;;;;;3.75;0.47;;;;;;;;;;5088027;28;20046;-75
2023/03/25 03:02:12;;;;;;;4.97;0.40;;;;;;;;;;5069213;28;20051;-74
2023/03/25 03:04:50;;;;;;;4.65;0.65;;;;;;;;;;5069608;28;20051;-74
2023/03/25 03:07:31;;;;;;;2.17;0.60;;;;;;;;;;5069476;28;20055;-75
2023/03/25 03:10:16;;;;;;;2.33;0.60;;;;;;;;;;5069646;28;20048;-74
2023/03/25 03:12:56;;;;;;;2.10;0.57;;;;;;;;;;5087753;28;20048;-75
2023/03/25 03:15:36;;;;;;;2.40;0.70;;;;;;;;;;5086278;28;20054;-74
2023/03/25 03:18:26;;;;;;;2.20;0.50;;;;;;;;;;5087116;28;20055;-75
2023/03/25 03:21:05;;;;;;;6.63;0.75;;;;;;;;;;5087612;28;20051;-74
2023/03/25 03:23:41;;;;;;;1.70;0.60;;;;;;;;;;5087343;28;20047;-74
2023/03/25 03:26:54;;;;;;;3.83;0.73;;;;;;;;;;5087733;28;20058;-74
2023/03/25 03:29:36;;;;;;;6.88;0.63;;;;;;;;;;5004526;28;20050;-73
2023/03/25 03:32:15;;;;;;;;;;;;;;;;;;5005469;28;20069;-74
2023/03/25 03:34:48;;;;;;;2.83;0.70;;;;;;;;;;5060076;28;19931;-75
2023/03/25 03:37:39;;;;;;;2.58;0.55;;;;;;;;;;5087723;28;20048;-75
2023/03/25 03:40:15;;;;;;;2.42;0.70;;;;;;;;;;5068755;28;20048;-75
2023/03/25 03:43:10;;;;;;;6.00;0.52;;;;;;;;;;5086299;28;20530;-75
2023/03/25 03:45:45;;;;;;;3.22;0.73;;;;;;;;;;5087346;28;20048;-75
2023/03/25 03:48:30;;;;;;;4.57;0.73;;;;;;;;;;5086609;28;20048;-74
2023/03/25 03:51:28;;;;;;;0.88;0.50;;;;;;;;;;5087123;28;20071;-74
2023/03/25 03:54:04;;;;;;;1.20;0.65;;;;;;;;;;5075248;28;20048;-74
2023/03/25 03:56:52;;;;;;;1.83;0.52;;;;;;;;;;5087368;28;20047;-73
2023/03/25 03:59:52;;;;;;;5.00;0.52;;;;;;;;;;5087066;28;20055;-74
2023/03/25 04:02:38;;;;;;;1.60;0.80;;;;;;;;;;5086937;28;20503;-74
2023/03/25 04:05:15;;;;;;;5.32;0.68;;;;;;;;;;5086845;28;20048;-75
2023/03/25 04:07:57;;;;;;;5.85;0.55;;;;;;;;;;5086714;28;20051;-75
2023/03/25 04:11:15;;;;;;;4.80;0.60;;;;;;;;;;5068424;28;20059;-74
2023/03/25 04:13:48;;;;;;;3.28;0.50;;;;;;;;;;5085918;28;20043;-74
2023/03/25 04:16:18;;;;;;;2.38;0.57;;;;;;;;;;5087216;28;20052;-75
2023/03/25 04:18:52;;;;;;;1.52;0.55;;;;;;;;;;5086718;28;20458;-75
2023/03/25 04:21:24;;;;;;;6.18;0.65;;;;;;;;;;5087067;28;20048;-75
2023/03/25 04:23:55;;;;;;;3.22;0.57;;;;;;;;;;5086328;28;20048;-76
2023/03/25 04:26:28;;;;;;;2.67;0.90;;;;;;;;;;5086913;28;20048;-75
2023/03/25 04:29:00;;;;;;;2.25;0.77;;;;;;;;;;5086843;28;20873;-74
2023/03/25 04:31:31;;;;;;;1.83;0.65;;;;;;;;;;5086514;28;20043;-75
2023/03/25 04:34:04;;;;;;;6.50;0.65;;;;;;;;;;5086496;28;20048;-76
2023/03/25 04:36:37;;;;;;;3.88;0.70;;;;;;;;;;5086542;28;20052;-74
2023/03/25 04:39:16;;;;;;;1.63;0.70;;;;;;;;;;5086635;28;20052;-74
2023/03/25 04:41:47;;;;;;;4.60;0.90;;;;;;;;;;5086265;28;20040;-75
2023/03/25 04:44:20;;;;;;;4.55;0.50;;;;;;;;;;5086669;28;20047;-74
2023/03/25 04:46:51;;;;;;;4.25;0.63;;;;;;;;;;5086724;28;20044;-74
2023/03/25 04:49:23;;;;;;;6.65;1.10;;;;;;;;;;5086937;28;20040;-74
2023/03/25 04:51:55;;;;;;;2.15;0.47;;;;;;;;;;5085987;28;20486;-75
2023/03/25 04:54:26;;;;;;;3.47;0.52;;;;;;;;;;5086233;28;20051;-75
2023/03/25 04:56:57;;;;;;;5.20;0.50;;;;;;;;;;5086390;28;20052;-75
2023/03/25 04:59:28;;;;;;;3.13;0.50;;;;;;;;;;5086394;28;20410;-75
2023/03/25 05:01:58;;;;;;;2.80;0.70;;;;;;;;;;5088335;28;20048;-75
2023/03/25 05:04:28;;;;;;;2.00;0.50;;;;;;;;;;5089115;28;20060;-74
2023/03/25 05:06:59;;;;;;;3.88;0.65;;;;;;;;;;5090178;28;20052;-75
2023/03/25 05:09:30;;;;;;;5.20;0.63;;;;;;;;;;5072539;28;20051;-74
2023/03/25 05:12:01;;;;;;;4.28;0.70;;;;;;;;;;5071785;28;20055;-75
2023/03/25 05:14:31;;;;;;;1.52;0.50;;;;;;;;;;5090378;28;20052;-75
2023/03/25 05:17:01;;;;;;;8.00;0.57;;;;;;;;;;5090437;28;20047;-75
2023/03/25 05:19:33;;;;;;;3.28;0.77;;;;;;;;;;5089690;28;20044;-75
2023/03/25 05:22:04;;;;;;;1.27;0.75;;;;;;;;;;5089876;28;20054;-74
2023/03/25 05:24:35;;;;;;;1.08;0.60;;;;;;;;;;5089771;28;20047;-74
2023/03/25 05:27:06;;;;;;;5.55;0.70;;;;;;;;;;5089501;28;20047;-75
2023/03/25 05:29:37;;;;;;;6.35;0.73;;;;;;;;;;5089673;28;20048;-75
2023/03/25 05:32:07;;;;;;;2.83;0.73;;;;;;;;;;5088549;28;20572;-75
2023/03/25 05:34:37;;;;;;;2.28;0.70;;;;;;;;;;5089855;28;20055;-75
2023/03/25 05:37:08;;;;;;;2.03;0.60;;;;;;;;;;5090108;28;20475;-75
2023/03/25 05:39:40;;;;;;;5.18;0.63;;;;;;;;;;5089568;28;20055;-75
2023/03/25 05:42:14;;;;;;;3.40;0.90;;;;;;;;;;5089259;28;20036;-74
2023/03/25 05:44:49;;;;;;;2.88;0.75;;;;;;;;;;5070499;28;20064;-75
2023/03/25 05:47:24;;;;;;;2.90;0.93;;;;;;;;;;5089384;28;20044;-74
2023/03/25 05:49:55;;;;;;;1.65;0.50;;;;;;;;;;5089637;28;20445;-74
2023/03/25 05:52:26;;;;;;;3.53;0.50;;;;;;;;;;5089819;28;20051;-74
2023/03/25 05:54:56;;;;;;;7.53;0.90;;;;;;;;;;5089088;28;20044;-75
2023/03/25 05:57:26;;;;;;;9.32;0.95;;;;;;;;;;5071359;28;20055;-74
2023/03/25 05:59:57;;;;;;;3.35;0.70;;;;;;;;;;5089160;28;20040;-75
2023/03/25 06:02:27;;;;;;;7.03;0.73;;;;;;;;;;5090339;28;20490;-75
2023/03/25 06:04:57;;;;;;;1.08;0.70;;;;;;;;;;5088607;28;20044;-74
2023/03/25 06:07:27;;;;;;;1.52;0.60;;;;;;;;;;5088956;28;20059;-74
2023/03/25 06:09:59;;;;;;;2.47;0.60;;;;;;;;;;5089152;28;20059;-75
2023/03/25 06:12:31;;;;;;;5.07;0.70;;;;;;;;;;5088884;28;20526;-74
2023/03/25 06:15:02;;;;;;;1.45;0.50;;;;;;;;;;5089821;28;20044;-75
2023/03/25 06:17:32;;;;;;;1.50;0.60;;;;;;;;;;5088681;28;20059;-75
2023/03/25 06:20:09;;;;;;;1.55;0.60;;;;;;;;;;5089467;28;20400;-76
2023/03/25 06:22:42;;;;;;;1.38;0.75;;;;;;;;;;5088551;28;20048;-74
2023/03/25 06:25:19;;;;;;;0.98;0.52;;;;;;;;;;5088981;28;20411;-75
2023/03/25 06:27:50;;;;;;;5.65;0.77;;;;;;;;;;5088820;28;20045;-76
2023/03/25 06:30:21;;;;;;;6.22;0.70;;;;;;;;;;5088630;28;20047;-75
2023/03/25 06:32:54;;;;;;;3.10;0.70;;;;;;;;;;5088455;28;20040;-75
2023/03/25 06:35:24;;;;;;;3.60;0.80;;;;;;;;;;5088266;28;20067;-75
2023/03/25 06:37:54;;;;;;;2.85;0.70;;;;;;;;;;5088607;28;20395;-74
2023/03/25 06:40:31;;;;;;;0.88;0.60;;;;;;;;;;5070064;28;20055;-74
2023/03/25 06:43:07;;;;;;;2.65;0.52;;;;;;;;;;5070151;28;20051;-75
2023/03/25 06:45:37;;;;;;;3.38;0.98;;;;;;;;;;5088537;28;20063;-75
2023/03/25 06:48:29;;;;;;;4.50;0.57;;;;;;;;;;5080238;28;20052;-74
2023/03/25 06:51:00;;;;;;;4.45;0.90;;;;;;;;;;5088167;28;20044;-75
2023/03/25 06:53:31;;;;;;;0.50;0.50;;;;;;;;;;5088351;28;20048;-75
2023/03/25 06:56:01;;;;;;;3.03;0.70;;;;;;;;;;5087519;28;20047;-75
2023/03/25 06:58:34;;;;;;;0.75;0.60;;;;;;;;;;5088021;28;20074;-75
2023/03/25 07:01:06;;;;;;;5.18;0.70;;;;;;;;;;5069833;28;20426;-75
2023/03/25 07:03:38;;;;;;;0.73;0.60;;;;;;;;;;5069306;28;20052;-75
2023/03/25 07:06:17;;;;;;;3.88;0.93;;;;;;;;;;5087828;28;21256;-74
2023/03/25 07:08:49;;;;;;;3.38;0.65;;;;;;;;;;5087800;28;20052;-74
2023/03/25 07:11:25;;;;;;;2.30;0.80;;;;;;;;;;5087764;28;20052;-75
2023/03/25 07:13:56;;;;;;;4.40;0.93;;;;;;;;;;5087897;28;20040;-75
2023/03/25 07:16:29;;;;;;;1.08;0.60;;;;;;;;;;5069902;28;20052;-75
2023/03/25 07:18:59;;;;;;;1.13;0.80;;;;;;;;;;5087405;28;20044;-75
2023/03/25 07:21:29;;;;;;;1.20;0.93;;;;;;;;;;5088039;28;20048;-75
2023/03/25 07:24:00;;;;;;;4.97;0.80;;;;;;;;;;5086684;28;20048;-74
2023/03/25 07:26:30;;;;;;;5.05;1.02;;;;;;;;;;5087472;28;20051;-74
2023/03/25 07:29:00;;;;;;;4.22;0.90;;;;;;;;;;5069430;28;20048;-76
2023/03/25 07:31:30;;;;;;;4.13;0.55;;;;;;;;;;5087561;28;20537;-75
2023/03/25 07:34:01;;;;;;;2.63;0.63;;;;;;;;;;5087463;28;20506;-75
2023/03/25 07:36:32;;;;;;;3.53;0.80;;;;;;;;;;5068795;28;20055;-75
2023/03/25 07:39:03;;;;;;;4.35;0.80;;;;;;;;;;5087176;28;20056;-74
2023/03/25 07:41:33;;;;;;;1.10;0.80;;;;;;;;;;5087707;28;20051;-75
2023/03/25 07:44:11;;;;;;;2.17;0.50;;;;;;;;;;5054275;28;20106;-75
2023/03/25 07:46:44;;;;;;;2.78;0.68;;;;;;;;;;5087126;28;20063;-75
2023/03/25 07:49:16;;;;;;;4.55;0.63;;;;;;;;;;5087101;28;20052;-75
2023/03/25 07:51:46;;;;;;;5.53;0.90;;;;;;;;;;5086555;28;20047;-75
2023/03/25 07:54:16;;;;;;;1.95;0.90;;;;;;;;;;5087036;28;20426;-75
2023/03/25 07:56:47;;;;;;;9.27;0.82;;;;;;;;;;5087129;28;20043;-75
2023/03/25 07:59:17;;;;;;;3.88;0.40;;;;;;;;;;5087484;28;20048;-75
2023/03/25 08:01:49;;;;;;;2.78;0.70;;;;;;;;;;5086915;28;20048;-74
2023/03/25 08:04:19;;;;;;;7.68;0.90;;;;;;;;;;5086686;28;20044;-75
2023/03/25 08:06:49;;;;;;;1.02;0.93;;;;;;;;;;5086920;28;20406;-75
2023/03/25 08:09:19;;;;;;;3.45;0.70;;;;;;;;;;5087623;28;20403;-75
2023/03/25 08:11:50;;;;;;;3.88;0.50;;;;;;;;;;5087160;28;20048;-77
2023/03/25 08:14:21;;;;;;;2.45;0.60;;;;;;;;;;5086697;28;20039;-75
2023/03/25 08:16:53;;;;;;;3.40;0.70;;;;;;;;;;5086680;28;20746;-75
2023/03/25 08:19:23;;;;;;;2.30;0.63;;;;;;;;;;5086938;28;20647;-75
2023/03/25 08:21:53;;;;;;;3.80;0.55;;;;;;;;;;5086433;28;20052;-75
2023/03/25 08:24:25;;;;;;;7.72;0.85;;;;;;;;;;5086791;28;20051;-74
2023/03/25 08:26:56;;;;;;;2.53;0.80;;;;;;;;;;5086374;28;20056;-74
2023/03/25 08:29:27;;;;;;;1.00;0.32;;;;;;;;;;5086317;28;20059;-74
2023/03/25 08:31:58;;;;;;;5.95;0.55;;;;;;;;;;5087306;28;20040;-75
2023/03/25 08:34:33;;;;;;;8.57;0.65;;;;;;;;;;5086757;28;20048;-75
2023/03/25 08:37:06;;;;;;;2.85;0.60;;;;;;;;;;5093302;28;20611;-74
2023/03/25 08:39:38;;;;;;;1.42;0.50;;;;;;;;;;5093454;28;20059;-75
2023/03/25 08:42:09;;;;;;;1.00;0.22;;;;;;;;;;5093120;28;20051;-75
2023/03/25 08:44:40;;;;;;;0.57;0.40;;;;;;;;;;5092614;28;20036;-74
2023/03/25 08:47:12;;;;;;;0.40;0.40;;;;;;;;;;5093434;28;20426;-74
2023/03/25 08:49:41;;;;;;;1.10;0.47;;;;;;;;;;5092952;28;20052;-74
2023/03/25 08:52:12;;;;;;;2.78;0.85;;;;;;;;;;5092954;28;20035;-74
2023/03/25 08:54:42;;;;;;;1.50;0.55;;;;;;;;;;5093006;28;20411;-75
2023/03/25 08:57:12;;;;;;;2.53;0.60;;;;;;;;;;5093130;28;20055;-74
2023/03/25 08:59:43;;;;;;;6.38;0.50;;;;;;;;;;5093933;28;20055;-74
2023/03/25 09:02:13;;;;;;;1.33;0.52;;;;;;;;;;5093510;28;20047;-74
2023/03/25 09:04:43;;;;;;;2.22;0.47;;;;;;;;;;5093140;28;20040;-74
2023/03/25 09:07:14;;;;;;;2.92;0.63;;;;;;;;;;5092822;28;20087;-74
2023/03/25 09:09:45;;;;;;;4.13;0.65;;;;;;;;;;5093593;28;20048;-74
2023/03/25 09:12:16;;;;;;;0.52;0.30;;;;;;;;;;5093041;28;20102;-75
2023/03/25 09:14:45;;;;;;;2.45;0.40;;;;;;;;;;5074410;28;20052;-74
2023/03/25 09:17:16;;;;;;;2.47;0.70;;;;;;;;;;5092529;28;20418;-74
2023/03/25 09:19:46;;;;;;;5.00;0.60;;;;;;;;;;5092506;28;20044;-76
2023/03/25 09:22:17;;;;;;;3.47;0.52;;;;;;;;;;5093146;28;20048;-76
2023/03/25 09:24:48;;;;;;;5.03;0.60;;;;;;;;;;5074902;28;20398;-75
2023/03/25 09:27:18;;;;;;;1.17;0.30;;;;;;;;;;5092730;28;20052;-76
2023/03/25 09:29:48;;;;;;;1.20;0.55;;;;;;;;;;5093272;28;20044;-75
2023/03/25 09:32:19;;;;;;;0.40;0.40;;;;;;;;;;5092591;28;20051;-76
2023/03/25 09:34:50;;;;;;;1.17;0.50;;;;;;;;;;5092817;28;20059;-74
2023/03/25 09:37:20;;;;;;;0.60;0.60;;;;;;;;;;5086482;28;20044;-73
2023/03/25 09:39:52;;;;;;;2.28;0.40;;;;;;;;;;5113531;28;20063;-79
2023/03/25 09:43:01;;;;;;;2.35;0.70;;;;;;;;;;5094642;28;20429;-75
2023/03/25 09:45:47;;;;;;;1.10;0.60;;;;;;;;;;5113045;28;20524;-73
2023/03/25 09:48:36;;;;;;;0.65;0.30;;;;;;;;;;5109463;28;20054;-72
2023/03/25 09:51:11;;;;;;;3.20;0.70;;;;;;;;;;5109920;28;20066;-76
2023/03/25 09:53:53;;;;;;;0.93;0.40;;;;;;;;;;5110477;28;20044;-77
2023/03/25 09:56:27;;;;;;;0.40;0.40;;;;;;;;;;5110002;28;20043;-74
2023/03/25 09:59:04;;;;;;;2.92;0.60;;;;;;;;;;5109808;28;20054;-78
2023/03/25 10:01:43;;;;;;;0.55;0.55;;;;;;;;;;5109888;28;20044;-77
2023/03/25 10:04:48;;;;;;;1.38;0.60;;;;;;;;;;5110366;28;20052;-72
2023/03/25 10:07:35;;;;;;;5.25;0.40;;;;;;;;;;5110122;28;20048;-74
2023/03/25 10:10:34;;;;;;;0.55;0.50;;;;;;;;;;5110488;28;20055;-75
2023/03/25 10:13:29;;;;;;;2.08;0.60;;;;;;;;;;5109278;28;20056;-76
2023/03/25 10:16:15;;;;;;;0.60;0.40;;;;;;;;;;5110284;28;20055;-77
2023/03/25 10:18:57;;;;;;;1.08;0.50;;;;;;;;;;5109474;28;20050;-76
2023/03/25 10:21:57;;;;;;;0.98;0.32;;;;;;;;;;5109306;28;20047;-78
2023/03/25 10:24:33;;;;;;;4.03;0.90;;;;;;;;;;5108739;28;20051;-75
2023/03/25 10:27:13;;;;;;;1.30;0.50;;;;;;;;;;5109207;28;20047;-76
2023/03/25 10:30:02;;;;;;;1.17;0.63;;;;;;;;;;5108970;28;20051;-75
2023/03/25 10:32:51;;;;;;;1.63;1.35;;;;;;;;;;5109376;28;20051;-79
2023/03/25 10:35:28;;;;;;;2.70;0.80;;;;;;;;;;5108987;28;20043;-77
2023/03/25 10:38:12;;;;;;;1.85;0.80;;;;;;;;;;5108976;28;20043;-76
2023/03/25 10:40:51;;;;;;;3.50;1.45;;;;;;;;;;5109405;28;20047;-77
2023/03/25 10:43:40;;;;;;;2.83;1.05;;;;;;;;;;5108370;28;20051;-78
2023/03/25 10:46:46;;;;;;;9.45;1.02;;;;;;;;;;5110305;28;20058;-79
2023/03/25 10:49:19;;;;;;;5.15;1.23;;;;;;;;;;5092334;28;20097;-76
2023/03/25 10:51:53;;;;;;;19.92;2.78;;;;;;;;;;5109693;28;20039;-78
2023/03/25 10:54:27;;;;;;;6.40;1.33;;;;;;;;;;5090202;28;20047;-77
2023/03/25 10:57:02;;;;;;;4.63;0.90;;;;;;;;;;5109327;28;20051;-73
2023/03/25 10:59:49;;;;;;;3.67;1.00;;;;;;;;;;5107830;28;20044;-75
2023/03/25 11:02:25;;;;;;;10.95;2.95;;;;;;;;;;5109030;28;20048;-79
2023/03/25 11:05:00;;;;;;;3.92;0.80;;;;;;;;;;5108852;28;20039;-79
2023/03/25 11:07:41;;;;;;;9.88;0.98;;;;;;;;;;5109007;28;20047;-76
2023/03/25 11:10:24;;;;;;;8.40;0.95;;;;;;;;;;5108060;28;20058;-74
2023/03/25 11:13:02;;;;;;;7.20;2.13;;;;;;;;;;5108742;28;20059;-76
2023/03/25 11:15:35;;;;;;;4.65;1.33;;;;;;;;;;5107976;28;20552;-78
2023/03/25 11:18:24;;;;;;;5.15;1.15;;;;;;;;;;5108191;28;20048;-80
2023/03/25 11:21:05;;;;;;;1.48;0.70;;;;;;;;;;5088768;28;20051;-76
2023/03/25 11:23:42;;;;;;;5.70;0.60;;;;;;;;;;5109047;28;20044;-76
2023/03/25 11:26:26;;;;;;;3.30;0.50;;;;;;;;;;5109048;28;20043;-77
2023/03/25 11:29:01;;;;;;;4.82;0.90;;;;;;;;;;5109672;28;20044;-78
2023/03/25 11:31:36;;;;;;;2.83;0.50;;;;;;;;;;5109297;28;20047;-79
2023/03/25 11:34:12;;;;;;;;;;;;;;;;;;5109368;28;20044;-78
2023/03/25 11:37:00;;;;;;;3.67;0.68;;;;;;;;;;5110491;28;19920;-74
2023/03/25 11:39:40;;;;;;;3.30;0.65;;;;;;;;;;5108844;28;20051;-74
2023/03/25 11:42:16;;;;;;;1.42;0.60;;;;;;;;;;5107908;28;20066;-78
2023/03/25 11:44:53;;;;;;;0.98;0.55;;;;;;;;;;5107935;28;20043;-74
2023/03/25 11:47:31;;;;;;;2.33;0.73;;;;;;;;;;5107202;28;20051;-78
2023/03/25 11:50:04;;;;;;;4.28;0.80;;;;;;;;;;5108322;28;20044;-76
2023/03/25 11:52:44;;;;;;;5.90;0.63;;;;;;;;;;5108539;28;20048;-81
2023/03/25 11:55:26;;;;;;;4.28;0.70;;;;;;;;;;5108698;28;20067;-76
2023/03/25 11:58:00;;;;;;;6.22;1.02;;;;;;;;;;5108386;28;20532;-75
2023/03/25 12:00:37;;;;;;;11.20;1.05;;;;;;;;;;5089824;28;20074;-80
2023/03/25 12:03:14;;;;;;;6.68;1.00;;;;;;;;;;5108171;28;20406;-78
2023/03/25 12:06:31;;;;;;;3.33;1.23;;;;;;;;;;5090568;28;20052;-80
2023/03/25 12:09:10;;;;;;;2.90;1.30;;;;;;;;;;5075128;28;20429;-79
2023/03/25 12:12:03;;;;;;;3.95;2.35;;;;;;;;;;5108613;28;20047;-77
2023/03/25 12:15:21;;;;;;;6.20;0.90;;;;;;;;;;5090064;28;20526;-74
2023/03/25 12:18:28;;;;;;;3.30;0.73;;;;;;;;;;5026195;28;20049;-78
2023/03/25 12:21:13;;;;;;;5.97;0.90;;;;;;;;;;5024757;28;20053;-77
2023/03/25 12:24:25;;;;;;;3.60;0.60;;;;;;;;;;5104776;28;20070;-76
2023/03/25 12:27:31;;;;;;;7.32;0.70;;;;;;;;;;5098406;28;20082;-76
2023/03/25 12:30:32;;;;;;;1.92;0.73;;;;;;;;;;5107903;28;20043;-77
2023/03/25 12:33:21;;;;;;;5.22;0.60;;;;;;;;;;5107932;28;20109;-79
2023/03/25 12:36:11;;;;;;;2.08;0.75;;;;;;;;;;5088869;28;20051;-78
2023/03/25 12:38:56;;;;;;;5.18;0.82;;;;;;;;;;5108166;28;20070;-75
2023/03/25 12:41:42;;;;;;;7.05;0.90;;;;;;;;;;5107892;28;20516;-73
2023/03/25 12:44:13;;;;;;;4.10;0.50;;;;;;;;;;5107489;28;20047;-76
2023/03/25 12:46:51;;;;;;;3.70;0.60;;;;;;;;;;5106900;28;20051;-77
2023/03/25 12:49:42;;;;;;;2.08;0.90;;;;;;;;;;5107113;28;20043;-79
2023/03/25 12:52:34;;;;;;;8.00;0.95;;;;;;;;;;5107490;28;20043;-80
2023/03/25 12:55:21;;;;;;;3.10;0.98;;;;;;;;;;5107352;28;20058;-75
2023/03/25 12:57:57;;;;;;;14.93;1.75;;;;;;;;;;5106891;28;20419;-76
2023/03/25 13:00:55;;;;;;;4.57;1.13;;;;;;;;;;5107345;28;20109;-73
2023/03/25 13:03:31;;;;;;;4.30;0.52;;;;;;;;;;5107962;28;20032;-77
2023/03/25 13:06:21;;;;;;;2.90;0.70;;;;;;;;;;5107611;28;20051;-80
2023/03/25 13:09:03;;;;;;;2.70;0.80;;;;;;;;;;5107321;28;20039;-76
2023/03/25 13:11:58;;;;;;;1.25;0.82;;;;;;;;;;5089740;28;20044;-77
2023/03/25 13:14:38;;;;;;;3.60;1.30;;;;;;;;;;5107727;28;20505;-78
2023/03/25 13:17:26;;;;;;;0.90;0.75;;;;;;;;;;5106481;28;20051;-78
2023/03/25 13:20:01;;;;;;;5.55;1.67;;;;;;;;;;5106771;28;20070;-79
2023/03/25 13:22:38;;;;;;;4.22;0.82;;;;;;;;;;5108379;28;20047;-77
2023/03/25 13:25:19;;;;;;;3.15;0.90;;;;;;;;;;5110527;28;20055;-77
2023/03/25 13:27:52;;;;;;;4.65;0.82;;;;;;;;;;5110401;28;20087;-79
2023/03/25 13:30:35;;;;;;;7.43;1.08;;;;;;;;;;5092834;28;20435;-77
2023/03/25 13:33:31;;;;;;;3.75;1.70;;;;;;;;;;5111429;28;20050;-76
2023/03/25 13:36:25;;;;;;;5.05;1.00;;;;;;;;;;5092279;28;20379;-75
2023/03/25 13:39:17;;;;;;;7.47;1.58;;;;;;;;;;5109448;28;20058;-74
2023/03/25 13:42:12;;;;;;;4.80;0.80;;;;;;;;;;5109396;28;20044;-75
2023/03/25 13:44:47;;;;;;;2.13;0.70;;;;;;;;;;5109188;28;20604;-75
2023/03/25 13:47:21;;;;;;;2.53;1.10;;;;;;;;;;5109102;28;20039;-75
2023/03/25 13:50:03;;;;;;;1.63;0.75;;;;;;;;;;5109195;28;20446;-75
2023/03/25 13:52:39;;;;;;;1.50;0.90;;;;;;;;;;5109085;28;20051;-74
2023/03/25 13:55:21;;;;;;;6.03;1.40;;;;;;;;;;5109498;28;20807;-75
2023/03/25 13:58:14;;;;;;;4.07;1.20;;;;;;;;;;5109494;28;20048;-75
2023/03/25 14:00:57;;;;;;;5.25;1.35;;;;;;;;;;5109284;28;20046;-74
2023/03/25 14:04:08;;;;;;;6.85;1.42;;;;;;;;;;5109464;28;20056;-76
2023/03/25 14:06:56;;;;;;;3.28;0.80;;;;;;;;;;5082451;28;20055;-75
2023/03/25 14:09:27;;;;;;;2.83;0.98;;;;;;;;;;5109950;28;20059;-77
2023/03/25 14:12:17;;;;;;;2.92;0.88;;;;;;;;;;5090694;28;20052;-75
2023/03/25 14:15:10;;;;;;;5.85;1.20;;;;;;;;;;5109149;28;20043;-79
2023/03/25 14:17:45;;;;;;;4.03;1.13;;;;;;;;;;5109379;28;20042;-74
2023/03/25 14:20:42;;;;;;;4.07;1.15;;;;;;;;;;5109797;28;20066;-77
2023/03/25 14:23:19;;;;;;;3.83;1.13;;;;;;;;;;5109293;28;20050;-77
2023/03/25 14:25:57;;;;;;;5.18;1.63;;;;;;;;;;5109552;28;20059;-75
2023/03/25 14:28:46;;;;;;;4.30;1.38;;;;;;;;;;5109505;28;20055;-78
2023/03/25 14:31:29;;;;;;;3.85;1.00;;;;;;;;;;5108614;28;20044;-74
2023/03/25 14:34:01;;;;;;;6.07;1.48;;;;;;;;;;5109277;28;20047;-77
2023/03/25 14:36:54;;;;;;;4.13;2.00;;;;;;;;;;5109076;28;20509;-77
2023/03/25 14:39:24;;;;;;;;;;;;;;;;;;5110080;28;20052;-75
2023/03/25 14:42:07;;;;;;;3.13;1.40;;;;;;;;;;5109465;28;19919;-77
2023/03/25 14:44:48;;;;;;;3.63;1.48;;;;;;;;;;5090354;28;20101;-78
2023/03/25 14:47:34;;;;;;;4.20;1.75;;;;;;;;;;5109710;28;20043;-77
2023/03/25 14:50:26;;;;;;;6.22;2.42;;;;;;;;;;5089902;28;20048;-75
2023/03/25 14:53:09;;;;;;;4.78;2.40;;;;;;;;;;5097327;28;20063;-75
2023/03/25 14:55:45;;;;;;;3.60;2.17;;;;;;;;;;5109017;28;20051;-78
2023/03/25 14:58:26;;;;;;;4.40;2.10;;;;;;;;;;5109113;28;20046;-75
2023/03/25 15:01:09;;;;;;;7.68;2.08;;;;;;;;;;5108643;28;20525;-75
2023/03/25 15:03:43;;;;;;;7.30;2.53;;;;;;;;;;5108576;28;20052;-78
2023/03/25 15:06:27;;;;;;;2.92;1.95;;;;;;;;;;5108883;28;20059;-77
2023/03/25 15:09:08;;;;;;;4.45;2.10;;;;;;;;;;5109114;28;20048;-77
2023/03/25 15:11:43;;;;;;;3.05;1.73;;;;;;;;;;5109383;28;20053;-76
2023/03/25 15:14:19;;;;;;;3.35;1.40;;;;;;;;;;5108762;28;20050;-79
2023/03/25 15:16:50;;;;;;;3.50;2.00;;;;;;;;;;5092580;28;20051;-76
2023/03/25 15:19:23;;;;;;;4.82;1.90;;;;;;;;;;5108860;28;20544;-80
2023/03/25 15:21:56;;;;;;;7.40;1.77;;;;;;;;;;5108506;28;20059;-76
2023/03/25 15:24:28;;;;;;;4.57;1.67;;;;;;;;;;5108444;28;20514;-78
2023/03/25 15:27:05;;;;;;;12.52;2.00;;;;;;;;;;5108131;28;20044;-79
2023/03/25 15:30:03;;;;;;;4.07;1.70;;;;;;;;;;5107990;28;20407;-75
2023/03/25 15:32:44;;;;;;;7.03;2.38;;;;;;;;;;5108527;28;20498;-79
2023/03/25 15:35:19;;;;;;;3.70;2.08;;;;;;;;;;5108847;28;20510;-75
2023/03/25 15:38:33;;;;;;;9.25;2.03;;;;;;;;;;5108351;28;20059;-81
2023/03/25 15:41:34;;;;;;;2.72;1.92;;;;;;;;;;5108639;28;20047;-74
2023/03/25 15:44:24;;;;;;;6.35;1.90;;;;;;;;;;5108343;28;20058;-78
2023/03/25 15:47:13;;;;;;;4.15;1.95;;;;;;;;;;5108714;28;20051;-79